Boyd Deep Canyon Reserve, California Weather observations

Data are for 10 minute period ending at time listed.
 Day   Time   Solar   Ave.   Ave.  Ave.  Vector  Max.   Baro.   Total    
  of    of     Rad.   Air    Rel.  Wind   Wind   Wind  Press.  Precip.   
Year   Day            Temp.  Hum.  Speed  Dir.   Gust                    
2016   (PST)  Kw/m2    F      %     mph   deg.    mph    mb.     in.     
-------------------------------------------------------------------------
  36    1:20   0.00   56.1    20    8.6   221    15.5   992.0    0.00 
  36    1:30   0.00   55.9    20    7.9   222    11.8   992.1    0.00 
  36    1:40   0.00   55.9    20    9.1   226    13.7   992.0    0.00 
  36    1:50   0.00   55.9    20    8.1   234    13.2   992.1    0.00 
  36    2:00   0.00   55.9    20    7.9   231    14.0   992.0    0.00 
  36    2:10   0.00   55.5    21    9.0   217    14.0   992.0    0.00 
  36    2:20   0.00   55.3    21    9.9   218    15.9   991.9    0.00 
  36    2:30   0.00   55.3    21    9.9   213    16.7   991.9    0.00 
  36    2:40   0.00   55.3    21    9.7   218    15.1   992.0    0.00 
  36    2:50   0.00   55.1    21   10.3   209    15.1   991.9    0.00 
  36    3:00   0.00   54.8    21   10.8   220    16.7   992.0    0.00 
  36    3:10   0.00   54.9    21   11.7   214    17.2   992.0    0.00 
  36    3:20   0.00   54.9    21   11.0   222    16.1   992.0    0.00 
  36    3:30   0.00   54.7    21   10.1   220    15.0   992.0    0.00 
  36    3:40   0.00   55.0    21   11.3   227    15.4   991.9    0.00 
  36    3:50   0.00   55.0    21    9.8   212    13.6   992.0    0.00 
  36    4:00   0.00   55.1    20   11.8   227    17.2   992.0    0.00 
  36    4:10   0.00   55.2    20   11.2   228    17.0   992.1    0.00 
  36    4:20   0.00   54.6    21    9.5   224    15.1   992.2    0.00 
  36    4:30   0.00   54.5    21    9.1   209    13.4   992.2    0.00 
  36    4:40   0.00   54.6    21    9.8   220    14.3   992.2    0.00 
  36    4:50   0.00   54.7    20   10.9   226    16.6   992.2    0.00 
  36    5:00   0.00   54.8    20    9.7   215    15.3   992.2    0.00 
  36    5:10   0.00   54.7    20    9.4   218    18.7   992.3    0.00 
  36    5:20   0.00   55.0    20    9.5   215    13.3   992.4    0.00 
  36    5:30   0.00   55.0    20   11.2   223    15.6   992.6    0.00 
  36    5:40   0.00   54.9    20   11.6   213    15.6   992.7    0.00 
  36    5:50   0.00   54.8    20   11.5   223    18.0   992.8    0.00 
  36    6:00   0.00   54.5    21   11.8   215    17.9   993.0    0.00 
  36    6:10   0.00   54.3    21   11.0   212    16.7   993.1    0.00 
  36    6:20   0.00   54.3    21   11.1   209    16.4   993.3    0.00 
  36    6:30   0.00   54.5    21   12.1   210    15.8   993.3    0.00 
  36    6:40   0.00   54.6    21   10.7   210    14.3   993.5    0.00 
  36    6:50   0.00   54.6    22   10.8   220    14.6   993.6    0.00 
  36    7:00   0.01   54.4    22   10.5   227    16.2   993.6    0.00 
  36    7:10   0.01   54.2    22   10.9   214    17.4   993.6    0.00 
  36    7:20   0.01   54.4    22   12.2   220    19.6   993.7    0.00 
  36    7:30   0.06   54.6    22   11.0   226    17.1   993.9    0.00 
  36    7:40   0.12   55.3    21   12.2   224    18.3   994.0    0.00 
  36    7:50   0.15   55.7    21   11.9   212    15.9   994.2    0.00 
  36    8:00   0.14   56.1    21   10.6   219    17.2   994.1    0.00 
  36    8:10   0.16   56.9    20    9.7   217    14.2   994.1    0.00 
  36    8:20   0.26   58.1    20    8.6   223    12.9   994.2    0.00 
  36    8:30   0.28   58.9    19    7.0   208    10.7   994.3    0.00 
  36    8:40   0.34   59.1    20    6.4   183    10.9   994.4    0.00 
  36    8:50   0.37   59.9    19    4.1   203     6.9   994.5    0.00 
  36    9:00   0.39   61.2    18    2.0   204     3.5   994.5    0.00 
  36    9:10   0.45   64.4    16    0.9    93     2.6   994.6    0.00 
  36    9:20   0.47   64.2    16    3.2    41     5.1   994.6    0.00 
  36    9:30   0.49   63.4    17    2.8    43     5.0   994.7    0.00 
  36    9:40   0.52   64.2    16    2.2   150     4.5   994.7    0.00 
  36    9:50   0.54   64.0    16    2.1   169     4.8   994.8    0.00 
  36   10:00   0.57   64.9    16    0.8    38     2.9   994.7    0.00 
  36   10:10   0.59   65.2    16    3.8    15     7.5   994.7    0.00 
  36   10:20   0.61   64.6    17    2.2    45     5.6   994.6    0.00 
  36   10:30   0.63   65.0    16    3.0    62     4.3   994.4    0.00 
  36   10:40   0.64   65.2    16    4.0    58     7.4   994.4    0.00 
  36   10:50   0.66   66.1    16    2.8    19     6.1   994.2    0.00 
  36   11:00   0.67   66.7    15    3.6     7     8.5   994.2    0.00 
  36   11:10   0.68   66.2    15    3.8    28     7.1   994.1    0.00 
  36   11:20   0.69   66.6    14    3.6    14     6.6   993.9    0.00 
  36   11:30   0.70   66.9    14    3.5    28     8.0   993.8    0.00 
  36   11:40   0.70   66.8    14    2.8   108     5.4   993.6    0.00 
  36   11:50   0.70   68.1    13    2.3    80    11.6   993.4    0.00 
  36   12:00   0.70   67.6    14    2.9    95     5.3   993.2    0.00 
  36   12:10   0.70   68.1    13    2.4   101     4.3   993.0    0.00 
  36   12:20   0.70   69.0    13    3.1   180     6.6   992.8    0.00 
  36   12:30   0.70   68.4    13    3.7   173     5.9   992.5    0.00 
  36   12:40   0.68   69.0    12    2.2   171     5.0   992.3    0.00 
  36   12:50   0.69   68.8    12    3.9    29     8.4   992.1    0.00 
  36   13:00   0.68   68.9    12    1.3   300     4.5   992.0    0.00 
  36   13:10   0.67   69.2    12    3.0    64     5.6   991.9    0.00 
  36   13:20   0.65   69.0    12    3.0   344     5.6   991.8    0.00 
  36   13:30   0.64   69.2    12    2.8   269     5.0   991.7    0.00 
  36   13:40   0.62   69.5    12    4.7   345     7.4   991.7    0.00 
  36   13:50   0.60   70.3    12    2.3   329     6.0   991.6    0.00 
  36   14:00   0.58   70.7    12    2.7   313     7.8   991.5    0.00 
  36   14:10   0.56   69.7    12    5.1   341     8.0   991.4    0.00 
  36   14:20   0.54   69.5    12    5.3     7     8.0   991.3    0.00 
  36   14:30   0.51   70.2    12    3.6   355     8.4   991.3    0.00 
  36   14:40   0.49   70.4    12    3.0   355     6.5   991.2    0.00 
  36   14:50   0.46   70.3    12    3.4     7     6.8   991.2    0.00 
  36   15:00   0.43   70.4    12    4.3   353     8.0   991.2    0.00 
  36   15:10   0.40   69.9    12    4.2   352     7.3   991.2    0.00 
  36   15:20   0.37   70.3    12    1.5   303     4.6   991.2    0.00 
  36   15:30   0.34   70.6    12    4.4    18     8.3   991.1    0.00 
  36   15:40   0.30   69.9    12    4.7    32     7.6   991.0    0.00 
  36   15:50   0.27   70.2    12    1.9   346     6.9   991.0    0.00 
  36   16:00   0.23   69.9    12    3.0   339     5.8   991.0    0.00 
  36   16:10   0.03   68.8    12    1.2   320     4.5   991.0    0.00 
  36   16:20   0.02   67.4    13    1.3   147     3.7   991.0    0.00 
  36   16:30   0.01   66.9    13    1.4   129     3.1   991.0    0.00 
  36   16:40   0.01   66.2    14    2.4   150     3.4   991.1    0.00 
  36   16:50   0.01   65.3    15    2.8   179     4.4   991.2    0.00 
  36   17:00   0.01   64.9    15    3.7   178     5.2   991.2    0.00 
  36   17:10   0.01   64.4    15    4.2   199     5.4   991.2    0.00 
  36   17:20   0.00   63.9    16    4.9   194     6.7   991.3    0.00 
  36   17:30   0.00   63.7    16    5.3   178     8.2   991.3    0.00 
  36   17:40   0.00   63.3    16    5.2   191     7.6   991.5    0.00 
  36   17:50   0.00   63.4    16    6.5   210    10.6   991.7    0.00 
  36   18:00   0.00   63.4    16    7.5   193    11.7   991.9    0.00 
  36   18:10   0.00   62.8    17    6.7   198     9.9   992.1    0.00 
  36   18:20   0.00   62.4    17    7.2   202    10.4   992.3    0.00 
  36   18:30   0.00   62.2    17    8.7   202    12.1   992.3    0.00 
  36   18:40   0.00   61.8    18    7.7   196    12.1   992.3    0.00 
  36   18:50   0.00   61.4    18    8.3   196    11.3   992.4    0.00 
  36   19:00   0.00   61.2    18    8.2   202    11.4   992.4    0.00 
  36   19:10   0.00   61.2    18   10.6   211    13.7   992.5    0.00 
  36   19:20   0.00   61.1    18   10.5   214    13.8   992.5    0.00 
  36   19:30   0.00   61.0    18   10.3   213    14.0   992.6    0.00 
  36   19:40   0.00   60.7    19    9.5   218    14.2   992.6    0.00 
  36   19:50   0.00   60.2    19    9.3   215    14.6   992.6    0.00 
  36   20:00   0.00   59.8    20    8.1   219    12.6   992.6    0.00 
  36   20:10   0.00   59.6    20    9.2   219    14.5   992.6    0.00 
  36   20:20   0.00   59.9    19    9.2   223    13.8   992.6    0.00 
  36   20:30   0.00   59.4    20    8.4   225    13.0   992.6    0.00 
  36   20:40   0.00   59.3    20   10.2   235    14.7   992.7    0.00 
  36   20:50   0.00   59.5    20   10.5   225    17.8   992.8    0.00 
  36   21:00   0.00   59.0    20    9.8   212    14.8   992.8    0.00 
  36   21:10   0.00   58.9    20   10.1   217    15.7   992.7    0.00 
  36   21:20   0.00   58.5    21   11.3   216    16.1   992.6    0.00 
  36   21:30   0.00   58.5    20   11.8   217    16.8   992.7    0.00 
  36   21:40   0.00   58.7    20   11.8   219    18.5   992.5    0.00 
  36   21:50   0.00   58.6    20   11.4   223    17.2   992.6    0.00 
  36   22:00   0.00   58.4    21   11.5   218    15.9   992.6    0.00 
  36   22:10   0.00   58.2    21   11.0   224    16.1   992.7    0.00 
  36   22:20   0.00   57.9    21   10.1   222    16.4   992.6    0.00 
  36   22:30   0.00   58.2    21   12.2   225    16.4   992.5    0.00 
  36   22:40   0.00   58.1    21   11.5   224    16.5   992.7    0.00 
  36   22:50   0.00   58.0    21   12.7   222    17.5   992.7    0.00 
  36   23:00   0.00   58.0    21   12.7   220    18.3   992.8    0.00 
  36   23:10   0.00   58.0    21   12.1   215    16.7   992.9    0.00 
  36   23:20   0.00   57.8    21   10.6   211    16.0   992.8    0.00 
  36   23:30   0.00   57.7    21   10.6   209    15.3   992.7    0.00 
  36   23:40   0.00   57.6    21   11.7   215    18.0   992.7    0.00 
  36   23:50   0.00   57.6    21   10.9   220    15.4   992.8    0.00 
  37    0:00   0.00   57.5    21   10.8   213    15.0   992.7    0.00 
  37    0:10   0.00   57.4    21   10.9   215    18.4   992.6    0.00 
  37    0:20   0.00   57.3    22   11.7   219    17.2   992.6    0.00 
  37    0:30   0.00   57.2    22   11.7   216    16.4   992.6    0.00 
  37    0:40   0.00   57.3    21   11.7   214    17.1   992.6    0.00 
  37    0:50   0.00   57.4    21   10.8   207    16.7   992.5    0.00 
  37    1:00   0.00   57.1    22    9.9   207    16.9   992.4    0.00 
  37    1:10   0.00   57.2    22   10.7   207    15.6   992.5    0.00 

Return to Boyd Deep Canyon Reserve graphs page.


Western Regional Climate Center,wrcc@dri.edu